sensor_id;sensor_type;location;lat;lon;timestamp;temperature;humidity
4934;DHT22;2482;49.154;8.254;2022-11-23T00:01:28;6.40;99.90
4934;DHT22;2482;49.154;8.254;2022-11-23T00:03:59;6.40;99.90
4934;DHT22;2482;49.154;8.254;2022-11-23T00:06:28;6.20;99.90
4934;DHT22;2482;49.154;8.254;2022-11-23T00:08:56;6.20;99.90
4934;DHT22;2482;49.154;8.254;2022-11-23T00:11:24;6.20;99.90
4934;DHT22;2482;49.154;8.254;2022-11-23T00:13:52;6.30;99.90
4934;DHT22;2482;49.154;8.254;2022-11-23T00:16:22;6.20;99.90
4934;DHT22;2482;49.154;8.254;2022-11-23T00:18:55;6.20;99.90
4934;DHT22;2482;49.154;8.254;2022-11-23T00:21:24;6.20;99.90
4934;DHT22;2482;49.154;8.254;2022-11-23T00:23:52;6.20;99.90
4934;DHT22;2482;49.154;8.254;2022-11-23T00:26:19;6.10;99.90
4934;DHT22;2482;49.154;8.254;2022-11-23T00:28:47;6.10;99.90
4934;DHT22;2482;49.154;8.254;2022-11-23T00:31:18;6.20;99.90
4934;DHT22;2482;49.154;8.254;2022-11-23T00:33:50;6.10;99.90
4934;DHT22;2482;49.154;8.254;2022-11-23T00:36:19;6.20;99.90
4934;DHT22;2482;49.154;8.254;2022-11-23T00:38:48;5.90;99.90
4934;DHT22;2482;49.154;8.254;2022-11-23T00:41:20;6.10;99.90
4934;DHT22;2482;49.154;8.254;2022-11-23T00:43:49;5.90;99.90
4934;DHT22;2482;49.154;8.254;2022-11-23T00:46:22;5.90;99.90
4934;DHT22;2482;49.154;8.254;2022-11-23T00:48:52;5.70;99.90
4934;DHT22;2482;49.154;8.254;2022-11-23T00:51:25;5.70;99.90
4934;DHT22;2482;49.154;8.254;2022-11-23T00:54:04;5.70;99.90
4934;DHT22;2482;49.154;8.254;2022-11-23T00:56:33;5.60;99.90
4934;DHT22;2482;49.154;8.254;2022-11-23T00:59:01;5.60;99.90
4934;DHT22;2482;49.154;8.254;2022-11-23T01:01:32;5.60;99.90
4934;DHT22;2482;49.154;8.254;2022-11-23T01:04:01;5.70;99.90
4934;DHT22;2482;49.154;8.254;2022-11-23T01:06:32;5.80;99.90
4934;DHT22;2482;49.154;8.254;2022-11-23T01:09:04;5.60;99.90
4934;DHT22;2482;49.154;8.254;2022-11-23T01:11:36;5.90;99.90
4934;DHT22;2482;49.154;8.254;2022-11-23T01:14:03;5.70;99.90
4934;DHT22;2482;49.154;8.254;2022-11-23T01:16:33;5.70;99.90
4934;DHT22;2482;49.154;8.254;2022-11-23T01:19:05;5.70;99.90
4934;DHT22;2482;49.154;8.254;2022-11-23T01:21:34;5.60;99.90
4934;DHT22;2482;49.154;8.254;2022-11-23T01:24:07;5.60;99.90
4934;DHT22;2482;49.154;8.254;2022-11-23T01:26:37;5.80;99.90
4934;DHT22;2482;49.154;8.254;2022-11-23T01:29:04;5.70;99.90
4934;DHT22;2482;49.154;8.254;2022-11-23T01:31:32;5.90;99.90
4934;DHT22;2482;49.154;8.254;2022-11-23T01:34:01;5.70;99.90
4934;DHT22;2482;49.154;8.254;2022-11-23T01:36:31;5.70;99.90
4934;DHT22;2482;49.154;8.254;2022-11-23T01:39:00;5.80;99.90
4934;DHT22;2482;49.154;8.254;2022-11-23T01:41:34;5.80;99.90
4934;DHT22;2482;49.154;8.254;2022-11-23T01:46:49;5.90;99.90
4934;DHT22;2482;49.154;8.254;2022-11-23T01:49:16;6.00;99.90
4934;DHT22;2482;49.154;8.254;2022-11-23T01:51:46;6.00;99.90
4934;DHT22;2482;49.154;8.254;2022-11-23T01:54:29;6.00;99.90
4934;DHT22;2482;49.154;8.254;2022-11-23T01:57:04;6.20;99.90
4934;DHT22;2482;49.154;8.254;2022-11-23T01:59:33;6.20;99.90
4934;DHT22;2482;49.154;8.254;2022-11-23T02:02:01;6.20;99.90
4934;DHT22;2482;49.154;8.254;2022-11-23T02:04:32;6.30;99.90
4934;DHT22;2482;49.154;8.254;2022-11-23T02:07:02;6.50;99.90
4934;DHT22;2482;49.154;8.254;2022-11-23T02:09:30;6.80;99.90
4934;DHT22;2482;49.154;8.254;2022-11-23T02:11:59;6.60;99.90
4934;DHT22;2482;49.154;8.254;2022-11-23T02:14:27;6.60;99.90
4934;DHT22;2482;49.154;8.254;2022-11-23T02:16:57;6.80;99.90
4934;DHT22;2482;49.154;8.254;2022-11-23T02:22:41;6.70;99.90
4934;DHT22;2482;49.154;8.254;2022-11-23T02:25:49;6.80;99.90
4934;DHT22;2482;49.154;8.254;2022-11-23T02:28:28;6.80;99.90
4934;DHT22;2482;49.154;8.254;2022-11-23T02:30:57;6.70;99.90
4934;DHT22;2482;49.154;8.254;2022-11-23T02:33:25;6.70;99.90
4934;DHT22;2482;49.154;8.254;2022-11-23T02:35:56;6.70;99.90
4934;DHT22;2482;49.154;8.254;2022-11-23T02:38:29;6.60;99.90
4934;DHT22;2482;49.154;8.254;2022-11-23T02:40:57;6.60;99.90
4934;DHT22;2482;49.154;8.254;2022-11-23T02:43:24;6.90;99.90
4934;DHT22;2482;49.154;8.254;2022-11-23T02:46:02;6.70;99.90
4934;DHT22;2482;49.154;8.254;2022-11-23T02:48:29;6.80;99.90
4934;DHT22;2482;49.154;8.254;2022-11-23T02:50:56;6.80;99.90
4934;DHT22;2482;49.154;8.254;2022-11-23T02:53:23;6.90;99.90
4934;DHT22;2482;49.154;8.254;2022-11-23T02:55:50;6.60;99.90
4934;DHT22;2482;49.154;8.254;2022-11-23T02:58:17;6.60;99.90
4934;DHT22;2482;49.154;8.254;2022-11-23T03:00:44;6.70;99.90
4934;DHT22;2482;49.154;8.254;2022-11-23T03:03:11;6.70;99.90
4934;DHT22;2482;49.154;8.254;2022-11-23T03:05:38;6.90;99.90
4934;DHT22;2482;49.154;8.254;2022-11-23T03:08:05;6.90;99.90
4934;DHT22;2482;49.154;8.254;2022-11-23T03:10:32;6.80;99.90
4934;DHT22;2482;49.154;8.254;2022-11-23T03:12:59;7.00;99.90
4934;DHT22;2482;49.154;8.254;2022-11-23T03:15:26;7.00;99.90
4934;DHT22;2482;49.154;8.254;2022-11-23T03:17:56;7.00;99.90
4934;DHT22;2482;49.154;8.254;2022-11-23T03:20:23;6.80;99.90
4934;DHT22;2482;49.154;8.254;2022-11-23T03:22:50;6.70;99.90
4934;DHT22;2482;49.154;8.254;2022-11-23T03:25:17;6.80;99.90
4934;DHT22;2482;49.154;8.254;2022-11-23T03:27:44;6.70;99.90
4934;DHT22;2482;49.154;8.254;2022-11-23T03:30:11;6.70;99.90
4934;DHT22;2482;49.154;8.254;2022-11-23T03:32:38;6.60;99.90
4934;DHT22;2482;49.154;8.254;2022-11-23T03:35:06;6.70;99.90
4934;DHT22;2482;49.154;8.254;2022-11-23T03:37:33;6.60;99.90
4934;DHT22;2482;49.154;8.254;2022-11-23T03:40:00;6.60;99.90
4934;DHT22;2482;49.154;8.254;2022-11-23T03:42:29;6.70;99.90
4934;DHT22;2482;49.154;8.254;2022-11-23T03:44:56;6.80;99.90
4934;DHT22;2482;49.154;8.254;2022-11-23T03:47:23;6.90;99.90
4934;DHT22;2482;49.154;8.254;2022-11-23T03:49:50;6.90;99.90
4934;DHT22;2482;49.154;8.254;2022-11-23T03:52:17;6.80;99.90
4934;DHT22;2482;49.154;8.254;2022-11-23T03:54:44;6.80;99.90
4934;DHT22;2482;49.154;8.254;2022-11-23T03:57:11;6.70;99.90
4934;DHT22;2482;49.154;8.254;2022-11-23T03:59:38;7.00;99.90
4934;DHT22;2482;49.154;8.254;2022-11-23T04:02:05;7.00;99.90
4934;DHT22;2482;49.154;8.254;2022-11-23T04:04:34;7.00;99.90
4934;DHT22;2482;49.154;8.254;2022-11-23T04:07:01;6.80;99.90
4934;DHT22;2482;49.154;8.254;2022-11-23T04:09:28;7.00;99.90
4934;DHT22;2482;49.154;8.254;2022-11-23T04:11:56;7.00;99.90
4934;DHT22;2482;49.154;8.254;2022-11-23T04:14:23;6.80;99.90
4934;DHT22;2482;49.154;8.254;2022-11-23T04:16:50;7.10;99.90
4934;DHT22;2482;49.154;8.254;2022-11-23T04:19:17;6.90;99.90
4934;DHT22;2482;49.154;8.254;2022-11-23T04:21:44;6.80;99.90
4934;DHT22;2482;49.154;8.254;2022-11-23T04:24:11;7.00;99.90
4934;DHT22;2482;49.154;8.254;2022-11-23T04:26:39;6.90;99.90
4934;DHT22;2482;49.154;8.254;2022-11-23T04:29:06;6.90;99.90
4934;DHT22;2482;49.154;8.254;2022-11-23T04:31:33;6.90;99.90
4934;DHT22;2482;49.154;8.254;2022-11-23T04:34:00;6.80;99.90
4934;DHT22;2482;49.154;8.254;2022-11-23T04:36:27;6.90;99.90
4934;DHT22;2482;49.154;8.254;2022-11-23T04:38:54;6.80;99.90
4934;DHT22;2482;49.154;8.254;2022-11-23T04:41:22;6.90;99.90
4934;DHT22;2482;49.154;8.254;2022-11-23T04:43:49;6.70;99.90
4934;DHT22;2482;49.154;8.254;2022-11-23T04:46:17;6.70;99.90
4934;DHT22;2482;49.154;8.254;2022-11-23T04:48:44;6.70;99.90
4934;DHT22;2482;49.154;8.254;2022-11-23T04:51:11;6.80;99.90
4934;DHT22;2482;49.154;8.254;2022-11-23T04:53:39;6.60;99.90
4934;DHT22;2482;49.154;8.254;2022-11-23T04:56:06;6.50;99.90
4934;DHT22;2482;49.154;8.254;2022-11-23T04:58:33;6.50;99.90
4934;DHT22;2482;49.154;8.254;2022-11-23T05:01:02;6.40;99.90
4934;DHT22;2482;49.154;8.254;2022-11-23T05:03:30;6.50;99.90
4934;DHT22;2482;49.154;8.254;2022-11-23T05:06:04;6.40;99.90
4934;DHT22;2482;49.154;8.254;2022-11-23T05:08:32;6.30;99.90
4934;DHT22;2482;49.154;8.254;2022-11-23T05:10:59;6.30;99.90
4934;DHT22;2482;49.154;8.254;2022-11-23T05:13:27;6.40;99.90
4934;DHT22;2482;49.154;8.254;2022-11-23T05:15:53;6.50;99.90
4934;DHT22;2482;49.154;8.254;2022-11-23T05:18:20;6.60;99.90
4934;DHT22;2482;49.154;8.254;2022-11-23T05:20:47;6.50;99.90
4934;DHT22;2482;49.154;8.254;2022-11-23T05:23:14;6.40;99.90
4934;DHT22;2482;49.154;8.254;2022-11-23T05:25:41;6.40;99.90
4934;DHT22;2482;49.154;8.254;2022-11-23T05:28:14;6.30;99.90
4934;DHT22;2482;49.154;8.254;2022-11-23T05:31:03;6.20;99.90
4934;DHT22;2482;49.154;8.254;2022-11-23T05:33:31;6.20;99.90
4934;DHT22;2482;49.154;8.254;2022-11-23T05:35:58;6.00;99.90
4934;DHT22;2482;49.154;8.254;2022-11-23T05:38:25;6.10;99.90
4934;DHT22;2482;49.154;8.254;2022-11-23T05:40:52;6.10;99.90
4934;DHT22;2482;49.154;8.254;2022-11-23T05:43:19;6.10;99.90
4934;DHT22;2482;49.154;8.254;2022-11-23T05:45:46;6.00;99.90
4934;DHT22;2482;49.154;8.254;2022-11-23T05:48:12;6.00;99.90
4934;DHT22;2482;49.154;8.254;2022-11-23T05:50:39;6.20;99.90
4934;DHT22;2482;49.154;8.254;2022-11-23T05:53:07;6.10;99.90
4934;DHT22;2482;49.154;8.254;2022-11-23T05:55:34;6.00;99.90
4934;DHT22;2482;49.154;8.254;2022-11-23T05:58:01;6.10;99.90
4934;DHT22;2482;49.154;8.254;2022-11-23T06:00:29;6.30;99.90
4934;DHT22;2482;49.154;8.254;2022-11-23T06:03:00;6.10;99.90
4934;DHT22;2482;49.154;8.254;2022-11-23T06:05:28;6.00;99.90
4934;DHT22;2482;49.154;8.254;2022-11-23T06:07:55;6.20;99.90
4934;DHT22;2482;49.154;8.254;2022-11-23T06:10:22;6.00;99.90
4934;DHT22;2482;49.154;8.254;2022-11-23T06:12:49;6.00;99.90
4934;DHT22;2482;49.154;8.254;2022-11-23T06:15:18;6.10;99.90
4934;DHT22;2482;49.154;8.254;2022-11-23T06:17:45;5.80;99.90
4934;DHT22;2482;49.154;8.254;2022-11-23T06:20:12;5.80;99.90
4934;DHT22;2482;49.154;8.254;2022-11-23T06:22:39;6.10;99.90
4934;DHT22;2482;49.154;8.254;2022-11-23T06:25:06;5.80;99.90
4934;DHT22;2482;49.154;8.254;2022-11-23T06:27:33;5.70;99.90
4934;DHT22;2482;49.154;8.254;2022-11-23T06:30:00;5.60;99.90
4934;DHT22;2482;49.154;8.254;2022-11-23T06:32:27;5.50;99.90
4934;DHT22;2482;49.154;8.254;2022-11-23T06:34:54;5.40;99.90
4934;DHT22;2482;49.154;8.254;2022-11-23T06:37:26;5.20;99.90
4934;DHT22;2482;49.154;8.254;2022-11-23T06:39:53;5.10;99.90
4934;DHT22;2482;49.154;8.254;2022-11-23T06:42:20;5.20;99.90
4934;DHT22;2482;49.154;8.254;2022-11-23T06:45:05;5.10;99.90
4934;DHT22;2482;49.154;8.254;2022-11-23T06:47:33;5.10;99.90
4934;DHT22;2482;49.154;8.254;2022-11-23T06:50:00;5.10;99.90
4934;DHT22;2482;49.154;8.254;2022-11-23T06:52:28;4.90;99.90
4934;DHT22;2482;49.154;8.254;2022-11-23T06:54:54;4.80;99.90
4934;DHT22;2482;49.154;8.254;2022-11-23T06:57:21;4.80;99.90
4934;DHT22;2482;49.154;8.254;2022-11-23T06:59:48;4.80;99.90
4934;DHT22;2482;49.154;8.254;2022-11-23T07:02:15;4.90;99.90
4934;DHT22;2482;49.154;8.254;2022-11-23T07:04:42;4.90;99.90
4934;DHT22;2482;49.154;8.254;2022-11-23T07:07:09;4.80;99.90
4934;DHT22;2482;49.154;8.254;2022-11-23T07:09:37;4.70;99.90
4934;DHT22;2482;49.154;8.254;2022-11-23T07:12:04;4.90;99.90
4934;DHT22;2482;49.154;8.254;2022-11-23T07:14:31;4.70;99.90
4934;DHT22;2482;49.154;8.254;2022-11-23T07:16:58;4.70;99.90
4934;DHT22;2482;49.154;8.254;2022-11-23T07:19:25;4.90;99.90
4934;DHT22;2482;49.154;8.254;2022-11-23T07:21:52;5.00;99.90
4934;DHT22;2482;49.154;8.254;2022-11-23T07:24:19;5.10;99.90
4934;DHT22;2482;49.154;8.254;2022-11-23T07:26:46;5.20;99.90
4934;DHT22;2482;49.154;8.254;2022-11-23T07:29:13;5.30;99.90
4934;DHT22;2482;49.154;8.254;2022-11-23T07:31:40;5.20;99.90
4934;DHT22;2482;49.154;8.254;2022-11-23T07:34:07;5.20;99.90
4934;DHT22;2482;49.154;8.254;2022-11-23T07:36:34;5.30;99.90
4934;DHT22;2482;49.154;8.254;2022-11-23T07:39:02;5.60;99.90
4934;DHT22;2482;49.154;8.254;2022-11-23T07:41:29;5.50;99.90
4934;DHT22;2482;49.154;8.254;2022-11-23T07:43:56;5.60;99.90
4934;DHT22;2482;49.154;8.254;2022-11-23T07:46:23;5.60;99.90
4934;DHT22;2482;49.154;8.254;2022-11-23T07:48:50;5.40;99.90
4934;DHT22;2482;49.154;8.254;2022-11-23T07:51:19;5.40;99.90
4934;DHT22;2482;49.154;8.254;2022-11-23T07:53:46;5.50;99.90
4934;DHT22;2482;49.154;8.254;2022-11-23T07:56:13;5.60;99.90
4934;DHT22;2482;49.154;8.254;2022-11-23T07:58:40;5.80;99.90
4934;DHT22;2482;49.154;8.254;2022-11-23T08:01:07;5.70;99.90
4934;DHT22;2482;49.154;8.254;2022-11-23T08:03:34;5.80;99.90
4934;DHT22;2482;49.154;8.254;2022-11-23T08:06:01;5.70;99.90
4934;DHT22;2482;49.154;8.254;2022-11-23T08:08:28;5.80;99.90
4934;DHT22;2482;49.154;8.254;2022-11-23T08:10:56;6.00;99.90
4934;DHT22;2482;49.154;8.254;2022-11-23T08:13:23;6.10;99.90
4934;DHT22;2482;49.154;8.254;2022-11-23T08:15:50;6.00;99.90
4934;DHT22;2482;49.154;8.254;2022-11-23T08:18:24;6.10;99.90
4934;DHT22;2482;49.154;8.254;2022-11-23T08:20:51;6.00;99.90
4934;DHT22;2482;49.154;8.254;2022-11-23T08:23:19;6.30;99.90
4934;DHT22;2482;49.154;8.254;2022-11-23T08:25:46;6.30;99.90
4934;DHT22;2482;49.154;8.254;2022-11-23T08:28:13;6.40;99.90
4934;DHT22;2482;49.154;8.254;2022-11-23T08:30:40;6.50;99.90
4934;DHT22;2482;49.154;8.254;2022-11-23T08:33:08;6.50;99.90
4934;DHT22;2482;49.154;8.254;2022-11-23T08:35:37;6.70;99.90
4934;DHT22;2482;49.154;8.254;2022-11-23T08:38:06;6.90;99.90
4934;DHT22;2482;49.154;8.254;2022-11-23T08:40:34;7.00;99.90
4934;DHT22;2482;49.154;8.254;2022-11-23T08:43:02;7.10;99.90
4934;DHT22;2482;49.154;8.254;2022-11-23T08:45:29;7.10;99.90
4934;DHT22;2482;49.154;8.254;2022-11-23T08:48:01;7.10;99.90
4934;DHT22;2482;49.154;8.254;2022-11-23T08:50:29;7.40;99.90
4934;DHT22;2482;49.154;8.254;2022-11-23T08:52:58;7.40;99.90
4934;DHT22;2482;49.154;8.254;2022-11-23T08:55:27;7.60;99.90
4934;DHT22;2482;49.154;8.254;2022-11-23T08:57:55;7.50;99.90
4934;DHT22;2482;49.154;8.254;2022-11-23T09:00:25;7.70;99.90
4934;DHT22;2482;49.154;8.254;2022-11-23T09:02:52;7.60;99.90
4934;DHT22;2482;49.154;8.254;2022-11-23T09:05:19;7.70;99.90
4934;DHT22;2482;49.154;8.254;2022-11-23T09:07:47;7.80;99.90
4934;DHT22;2482;49.154;8.254;2022-11-23T09:10:14;8.00;99.90
4934;DHT22;2482;49.154;8.254;2022-11-23T09:12:46;7.90;99.90
4934;DHT22;2482;49.154;8.254;2022-11-23T09:15:14;8.00;99.90
4934;DHT22;2482;49.154;8.254;2022-11-23T09:17:41;8.20;99.90
4934;DHT22;2482;49.154;8.254;2022-11-23T09:20:08;8.20;99.90
4934;DHT22;2482;49.154;8.254;2022-11-23T09:22:36;8.20;99.90
4934;DHT22;2482;49.154;8.254;2022-11-23T09:25:04;8.30;99.90
4934;DHT22;2482;49.154;8.254;2022-11-23T09:27:32;8.30;99.90
4934;DHT22;2482;49.154;8.254;2022-11-23T09:29:59;8.50;99.90
4934;DHT22;2482;49.154;8.254;2022-11-23T09:32:27;8.50;99.90
4934;DHT22;2482;49.154;8.254;2022-11-23T09:34:54;8.70;99.90
4934;DHT22;2482;49.154;8.254;2022-11-23T09:37:21;8.60;99.90
4934;DHT22;2482;49.154;8.254;2022-11-23T09:39:48;8.70;99.90
4934;DHT22;2482;49.154;8.254;2022-11-23T09:45:13;8.60;99.90
4934;DHT22;2482;49.154;8.254;2022-11-23T09:48:14;8.60;99.90
4934;DHT22;2482;49.154;8.254;2022-11-23T09:50:59;8.80;99.90
4934;DHT22;2482;49.154;8.254;2022-11-23T09:53:44;8.80;99.90
4934;DHT22;2482;49.154;8.254;2022-11-23T09:56:29;8.80;99.90
4934;DHT22;2482;49.154;8.254;2022-11-23T09:59:04;9.00;99.90
4934;DHT22;2482;49.154;8.254;2022-11-23T10:01:42;9.20;99.90
4934;DHT22;2482;49.154;8.254;2022-11-23T10:04:16;9.20;99.90
4934;DHT22;2482;49.154;8.254;2022-11-23T10:09:47;9.50;99.90
4934;DHT22;2482;49.154;8.254;2022-11-23T10:15:44;9.60;99.90
4934;DHT22;2482;49.154;8.254;2022-11-23T10:18:32;9.60;99.90
4934;DHT22;2482;49.154;8.254;2022-11-23T10:26:31;9.90;99.90
4934;DHT22;2482;49.154;8.254;2022-11-23T10:32:06;9.80;99.90
4934;DHT22;2482;49.154;8.254;2022-11-23T10:35:07;9.90;99.90
4934;DHT22;2482;49.154;8.254;2022-11-23T10:37:39;10.00;99.90
4934;DHT22;2482;49.154;8.254;2022-11-23T10:40:19;9.90;99.90
4934;DHT22;2482;49.154;8.254;2022-11-23T10:42:53;10.10;99.90
4934;DHT22;2482;49.154;8.254;2022-11-23T10:45:28;10.10;99.90
4934;DHT22;2482;49.154;8.254;2022-11-23T10:47:57;10.20;99.90
4934;DHT22;2482;49.154;8.254;2022-11-23T10:50:32;10.10;99.90
4934;DHT22;2482;49.154;8.254;2022-11-23T10:53:22;10.30;99.90
4934;DHT22;2482;49.154;8.254;2022-11-23T10:55:58;10.50;99.90
4934;DHT22;2482;49.154;8.254;2022-11-23T10:58:31;10.40;99.90
4934;DHT22;2482;49.154;8.254;2022-11-23T11:01:05;10.40;99.90
4934;DHT22;2482;49.154;8.254;2022-11-23T11:03:34;10.40;99.90
4934;DHT22;2482;49.154;8.254;2022-11-23T11:06:02;10.50;99.90
4934;DHT22;2482;49.154;8.254;2022-11-23T11:08:48;10.50;99.90
4934;DHT22;2482;49.154;8.254;2022-11-23T11:11:26;10.40;99.90
4934;DHT22;2482;49.154;8.254;2022-11-23T11:14:16;10.30;99.90
4934;DHT22;2482;49.154;8.254;2022-11-23T11:16:48;10.40;99.90
4934;DHT22;2482;49.154;8.254;2022-11-23T11:19:28;10.50;99.90
4934;DHT22;2482;49.154;8.254;2022-11-23T11:22:00;10.70;99.90
4934;DHT22;2482;49.154;8.254;2022-11-23T11:24:42;10.60;99.90
4934;DHT22;2482;49.154;8.254;2022-11-23T11:27:30;10.60;99.90
4934;DHT22;2482;49.154;8.254;2022-11-23T11:35:49;10.70;99.90
4934;DHT22;2482;49.154;8.254;2022-11-23T11:38:31;10.80;99.90
4934;DHT22;2482;49.154;8.254;2022-11-23T11:41:06;10.80;99.90
4934;DHT22;2482;49.154;8.254;2022-11-23T11:43:39;10.70;99.90
4934;DHT22;2482;49.154;8.254;2022-11-23T11:46:14;10.90;99.90
4934;DHT22;2482;49.154;8.254;2022-11-23T11:49:14;10.80;99.90
4934;DHT22;2482;49.154;8.254;2022-11-23T11:52:01;10.90;99.90
4934;DHT22;2482;49.154;8.254;2022-11-23T11:57:48;11.00;99.90
4934;DHT22;2482;49.154;8.254;2022-11-23T12:00:21;10.90;99.90
4934;DHT22;2482;49.154;8.254;2022-11-23T12:05:52;11.00;99.90
4934;DHT22;2482;49.154;8.254;2022-11-23T12:10:59;11.10;99.90
4934;DHT22;2482;49.154;8.254;2022-11-23T12:13:36;11.10;99.90
4934;DHT22;2482;49.154;8.254;2022-11-23T12:16:42;11.30;99.90
4934;DHT22;2482;49.154;8.254;2022-11-23T12:19:55;11.30;99.90
4934;DHT22;2482;49.154;8.254;2022-11-23T12:25:22;11.20;99.90
4934;DHT22;2482;49.154;8.254;2022-11-23T12:34:19;11.20;99.90
4934;DHT22;2482;49.154;8.254;2022-11-23T12:43:00;11.30;99.90
4934;DHT22;2482;49.154;8.254;2022-11-23T12:51:25;11.30;99.90
4934;DHT22;2482;49.154;8.254;2022-11-23T12:54:53;11.30;99.90
4934;DHT22;2482;49.154;8.254;2022-11-23T12:57:28;11.30;99.90
4934;DHT22;2482;49.154;8.254;2022-11-23T13:00:11;11.30;99.90
4934;DHT22;2482;49.154;8.254;2022-11-23T13:09:22;11.40;99.90
4934;DHT22;2482;49.154;8.254;2022-11-23T13:18:08;11.40;99.90
4934;DHT22;2482;49.154;8.254;2022-11-23T13:21:13;11.30;99.90
4934;DHT22;2482;49.154;8.254;2022-11-23T13:23:44;11.10;99.90
4934;DHT22;2482;49.154;8.254;2022-11-23T13:26:38;11.20;99.90
4934;DHT22;2482;49.154;8.254;2022-11-23T13:40:27;11.40;99.90
4934;DHT22;2482;49.154;8.254;2022-11-23T13:43:17;11.50;99.90
4934;DHT22;2482;49.154;8.254;2022-11-23T13:46:10;11.40;99.90
4934;DHT22;2482;49.154;8.254;2022-11-23T13:48:47;11.30;99.90
4934;DHT22;2482;49.154;8.254;2022-11-23T13:51:27;11.30;99.90
4934;DHT22;2482;49.154;8.254;2022-11-23T13:54:04;11.60;99.90
4934;DHT22;2482;49.154;8.254;2022-11-23T13:56:42;11.50;99.90
4934;DHT22;2482;49.154;8.254;2022-11-23T13:59:27;11.20;99.90
4934;DHT22;2482;49.154;8.254;2022-11-23T14:04:37;11.20;99.90
4934;DHT22;2482;49.154;8.254;2022-11-23T14:07:21;10.90;99.90
4934;DHT22;2482;49.154;8.254;2022-11-23T14:10:04;10.80;99.90
4934;DHT22;2482;49.154;8.254;2022-11-23T14:12:51;10.70;99.90
4934;DHT22;2482;49.154;8.254;2022-11-23T14:15:24;10.80;99.90
4934;DHT22;2482;49.154;8.254;2022-11-23T14:36:22;9.90;99.90
4934;DHT22;2482;49.154;8.254;2022-11-23T14:41:42;9.80;99.90
4934;DHT22;2482;49.154;8.254;2022-11-23T14:44:13;9.80;99.90
4934;DHT22;2482;49.154;8.254;2022-11-23T14:47:07;9.70;99.90
4934;DHT22;2482;49.154;8.254;2022-11-23T14:49:35;9.70;99.90
4934;DHT22;2482;49.154;8.254;2022-11-23T14:52:04;9.70;99.90
4934;DHT22;2482;49.154;8.254;2022-11-23T14:54:31;9.80;99.90
4934;DHT22;2482;49.154;8.254;2022-11-23T14:57:01;9.80;99.90
4934;DHT22;2482;49.154;8.254;2022-11-23T14:59:34;9.80;99.90
4934;DHT22;2482;49.154;8.254;2022-11-23T15:02:13;9.70;99.90
4934;DHT22;2482;49.154;8.254;2022-11-23T15:07:54;9.70;99.90
4934;DHT22;2482;49.154;8.254;2022-11-23T15:13:28;9.70;99.90
4934;DHT22;2482;49.154;8.254;2022-11-23T15:15:57;9.70;99.90
4934;DHT22;2482;49.154;8.254;2022-11-23T15:18:33;10.00;99.90
4934;DHT22;2482;49.154;8.254;2022-11-23T15:21:17;10.10;99.90
4934;DHT22;2482;49.154;8.254;2022-11-23T15:23:54;10.00;99.90
4934;DHT22;2482;49.154;8.254;2022-11-23T15:26:25;10.00;99.90
4934;DHT22;2482;49.154;8.254;2022-11-23T15:29:31;9.90;99.90
4934;DHT22;2482;49.154;8.254;2022-11-23T15:32:02;9.50;99.90
4934;DHT22;2482;49.154;8.254;2022-11-23T15:34:53;9.30;99.90
4934;DHT22;2482;49.154;8.254;2022-11-23T15:37:22;9.10;99.90
4934;DHT22;2482;49.154;8.254;2022-11-23T15:39:52;9.10;99.90
4934;DHT22;2482;49.154;8.254;2022-11-23T15:42:22;9.10;99.90
4934;DHT22;2482;49.154;8.254;2022-11-23T15:44:50;9.10;99.90
4934;DHT22;2482;49.154;8.254;2022-11-23T15:47:24;9.10;99.90
4934;DHT22;2482;49.154;8.254;2022-11-23T15:50:12;9.20;99.90
4934;DHT22;2482;49.154;8.254;2022-11-23T15:52:41;9.10;99.90
4934;DHT22;2482;49.154;8.254;2022-11-23T15:55:13;8.90;99.90
4934;DHT22;2482;49.154;8.254;2022-11-23T15:57:42;9.00;99.90
4934;DHT22;2482;49.154;8.254;2022-11-23T16:00:24;9.20;99.90
4934;DHT22;2482;49.154;8.254;2022-11-23T16:02:52;9.40;99.90
4934;DHT22;2482;49.154;8.254;2022-11-23T16:08:38;9.30;99.90
4934;DHT22;2482;49.154;8.254;2022-11-23T16:14:13;9.50;99.90
4934;DHT22;2482;49.154;8.254;2022-11-23T16:16:46;9.40;99.90
4934;DHT22;2482;49.154;8.254;2022-11-23T16:19:37;9.30;99.90
4934;DHT22;2482;49.154;8.254;2022-11-23T16:22:05;9.10;99.90
4934;DHT22;2482;49.154;8.254;2022-11-23T16:24:34;9.20;99.90
4934;DHT22;2482;49.154;8.254;2022-11-23T16:27:11;9.10;99.90
4934;DHT22;2482;49.154;8.254;2022-11-23T16:29:40;9.00;99.90
4934;DHT22;2482;49.154;8.254;2022-11-23T16:32:42;9.10;99.90
4934;DHT22;2482;49.154;8.254;2022-11-23T16:35:15;9.20;99.90
4934;DHT22;2482;49.154;8.254;2022-11-23T16:37:43;9.00;99.90
4934;DHT22;2482;49.154;8.254;2022-11-23T16:40:11;9.20;99.90
4934;DHT22;2482;49.154;8.254;2022-11-23T16:42:39;9.20;99.90
4934;DHT22;2482;49.154;8.254;2022-11-23T16:45:07;9.10;99.90
4934;DHT22;2482;49.154;8.254;2022-11-23T16:47:53;8.90;99.90
4934;DHT22;2482;49.154;8.254;2022-11-23T16:50:23;8.90;99.90
4934;DHT22;2482;49.154;8.254;2022-11-23T16:52:50;8.70;99.90
4934;DHT22;2482;49.154;8.254;2022-11-23T16:55:17;8.80;99.90
4934;DHT22;2482;49.154;8.254;2022-11-23T16:57:44;8.70;99.90
4934;DHT22;2482;49.154;8.254;2022-11-23T17:00:17;8.60;99.90
4934;DHT22;2482;49.154;8.254;2022-11-23T17:02:47;8.50;99.90
4934;DHT22;2482;49.154;8.254;2022-11-23T17:05:19;8.50;99.90
4934;DHT22;2482;49.154;8.254;2022-11-23T17:07:47;8.50;99.90
4934;DHT22;2482;49.154;8.254;2022-11-23T17:10:15;8.50;99.90
4934;DHT22;2482;49.154;8.254;2022-11-23T17:12:49;8.50;99.90
4934;DHT22;2482;49.154;8.254;2022-11-23T17:15:19;8.40;99.90
4934;DHT22;2482;49.154;8.254;2022-11-23T17:17:47;8.50;99.90
4934;DHT22;2482;49.154;8.254;2022-11-23T17:20:15;8.60;99.90
4934;DHT22;2482;49.154;8.254;2022-11-23T17:22:43;8.50;99.90
4934;DHT22;2482;49.154;8.254;2022-11-23T17:25:11;8.40;99.90
4934;DHT22;2482;49.154;8.254;2022-11-23T17:27:41;8.40;99.90
4934;DHT22;2482;49.154;8.254;2022-11-23T17:30:15;8.30;99.90
4934;DHT22;2482;49.154;8.254;2022-11-23T17:32:46;8.30;99.90
4934;DHT22;2482;49.154;8.254;2022-11-23T17:35:14;8.30;99.90
4934;DHT22;2482;49.154;8.254;2022-11-23T17:37:42;8.40;99.90
4934;DHT22;2482;49.154;8.254;2022-11-23T17:40:21;8.40;99.90
4934;DHT22;2482;49.154;8.254;2022-11-23T17:42:49;8.40;99.90
4934;DHT22;2482;49.154;8.254;2022-11-23T17:45:16;8.40;99.90
4934;DHT22;2482;49.154;8.254;2022-11-23T17:47:43;8.30;99.90
4934;DHT22;2482;49.154;8.254;2022-11-23T17:50:16;8.40;99.90
4934;DHT22;2482;49.154;8.254;2022-11-23T17:52:45;8.30;99.90
4934;DHT22;2482;49.154;8.254;2022-11-23T17:55:14;8.30;99.90
4934;DHT22;2482;49.154;8.254;2022-11-23T17:57:41;8.30;99.90
4934;DHT22;2482;49.154;8.254;2022-11-23T18:00:20;8.30;99.90
4934;DHT22;2482;49.154;8.254;2022-11-23T18:02:48;8.30;99.90
4934;DHT22;2482;49.154;8.254;2022-11-23T18:05:16;8.10;99.90
4934;DHT22;2482;49.154;8.254;2022-11-23T18:07:48;8.30;99.90
4934;DHT22;2482;49.154;8.254;2022-11-23T18:10:16;8.30;99.90
4934;DHT22;2482;49.154;8.254;2022-11-23T18:12:44;8.20;99.90
4934;DHT22;2482;49.154;8.254;2022-11-23T18:15:11;8.20;99.90
4934;DHT22;2482;49.154;8.254;2022-11-23T18:17:39;8.20;99.90
4934;DHT22;2482;49.154;8.254;2022-11-23T18:20:07;8.10;99.90
4934;DHT22;2482;49.154;8.254;2022-11-23T18:22:35;8.10;99.90
4934;DHT22;2482;49.154;8.254;2022-11-23T18:25:03;8.10;99.90
4934;DHT22;2482;49.154;8.254;2022-11-23T18:27:30;8.10;99.90
4934;DHT22;2482;49.154;8.254;2022-11-23T18:29:57;8.20;99.90
4934;DHT22;2482;49.154;8.254;2022-11-23T18:32:24;8.20;99.90
4934;DHT22;2482;49.154;8.254;2022-11-23T18:34:51;8.20;99.90
4934;DHT22;2482;49.154;8.254;2022-11-23T18:37:18;8.20;99.90
4934;DHT22;2482;49.154;8.254;2022-11-23T18:39:45;8.10;99.90
4934;DHT22;2482;49.154;8.254;2022-11-23T18:42:13;8.00;99.90